Jefferson, Louisiana
Current Conditions -  °F | °C
As of 10:53 AM on Friday 31 Oct 2014 (Local Time) from KMSY Reporting Station
Clear Clear  
Wind Chill: 72°   Ceiling: Unl
Heat Index: 72°   Visibility: 10mi
Dew Point: 48°   Wind: 13mph
Humidity: 43%   Direction: 300°WNW
Pressure: 30.06"   Gusts: NA
Location:  29.96°N, 90.17°W
Report Text: KMSY 311553Z 30011KT 10SM CLR 22/09 A3006 RMK AO2 SLP183 T02220089
Loading
Personal Weather Stations






























Interactive Weather Map New forecast layout! Learn more

10-Day Weather Forecast

Advertisements
Track Severe Weather on mobile